Time;durP1;ratioP1;P1;durP2;ratioP2;P2;SDS_P1;SDS_P2;PMS_P1;PMS_P2;Temp;Humidity;BMP_temperature;BMP_pressure;BME280_temperature;BME280_humidity;BME280_pressure;Samples;Min_cycle;Max_cycle;Signal;HPM_P1;HPM_P2
2022/04/29 00:00:42;;;;;;;12.50;5.07;;;7.40;99.90;;;;;;5043163;28;20033;-65
2022/04/29 00:03:10;;;;;;;11.80;5.43;;;7.30;99.90;;;;;;5044045;28;20068;-64
2022/04/29 00:05:37;;;;;;;5.63;4.65;;;7.30;99.90;;;;;;5043553;28;20147;-64
2022/04/29 00:08:05;;;;;;;8.27;4.53;;;7.30;99.90;;;;;;5047578;28;20146;-64
2022/04/29 00:10:31;;;;;;;7.72;4.57;;;7.30;99.90;;;;;;5053108;28;20053;-65
2022/04/29 00:12:57;;;;;;;7.32;5.15;;;7.40;99.90;;;;;;5047050;28;20044;-64
2022/04/29 00:15:22;;;;;;;10.20;5.55;;;7.40;99.90;;;;;;5045214;28;20276;-64
2022/04/29 00:17:48;;;;;;;4.57;4.07;;;7.40;99.90;;;;;;5045799;28;20340;-64
2022/04/29 00:20:14;;;;;;;11.13;4.70;;;7.40;99.90;;;;;;5046658;28;20439;-64
2022/04/29 00:22:41;;;;;;;7.85;4.07;;;7.40;99.90;;;;;;5052440;28;20048;-64
2022/04/29 00:25:08;;;;;;;11.25;4.80;;;7.40;99.90;;;;;;5046435;28;20440;-64
2022/04/29 00:27:35;;;;;;;5.20;4.07;;;7.40;99.90;;;;;;5045440;28;20221;-64
2022/04/29 00:30:01;;;;;;;8.32;4.68;;;7.40;99.90;;;;;;5045108;28;20079;-65
2022/04/29 00:32:26;;;;;;;7.35;4.38;;;7.40;99.90;;;;;;5043553;28;20048;-65
2022/04/29 00:34:52;;;;;;;7.57;4.68;;;7.40;99.90;;;;;;5050881;28;20569;-64
2022/04/29 00:37:18;;;;;;;11.48;4.80;;;7.40;99.90;;;;;;5053483;28;20474;-64
2022/04/29 00:39:44;;;;;;;8.77;4.75;;;7.30;99.90;;;;;;5049003;28;20056;-65
2022/04/29 00:42:15;;;;;;;8.50;5.15;;;7.30;99.90;;;;;;5046404;28;20158;-64
2022/04/29 00:44:41;;;;;;;7.78;4.45;;;7.30;99.90;;;;;;5052451;28;20782;-66
2022/04/29 00:47:11;;;;;;;8.15;5.65;;;7.30;99.90;;;;;;5051952;28;20432;-66
2022/04/29 00:49:37;;;;;;;9.27;4.65;;;7.30;99.90;;;;;;5048744;28;20159;-64
2022/04/29 00:52:06;;;;;;;9.65;4.35;;;7.30;99.90;;;;;;5051530;28;20887;-64
2022/04/29 00:54:35;;;;;;;8.05;4.60;;;7.30;99.90;;;;;;5048975;28;20049;-64
2022/04/29 00:57:06;;;;;;;10.68;4.18;;;7.40;99.90;;;;;;5046791;28;20078;-64
2022/04/29 00:59:50;;;;;;;10.35;5.25;;;7.40;99.90;;;;;;5054077;28;20120;-64
2022/04/29 01:02:16;;;;;;;8.57;3.80;;;7.40;99.90;;;;;;5053162;28;20182;-64
2022/04/29 01:04:55;;;;;;;11.70;5.13;;;7.40;99.90;;;;;;5046987;28;20063;-65
2022/04/29 01:07:22;;;;;;;12.35;4.90;;;7.40;99.90;;;;;;5049199;28;20084;-64
2022/04/29 01:09:48;;;;;;;7.50;5.20;;;7.40;99.90;;;;;;5047857;28;20478;-64
2022/04/29 01:12:14;;;;;;;8.55;4.90;;;7.30;99.90;;;;;;5048509;28;20051;-64
2022/04/29 01:14:40;;;;;;;5.65;3.90;;;7.30;99.90;;;;;;5050720;28;20078;-65
2022/04/29 01:17:06;;;;;;;11.52;4.72;;;7.30;99.90;;;;;;5046404;28;20045;-65
2022/04/29 01:19:31;;;;;;;8.52;3.85;;;7.30;99.90;;;;;;5051873;28;20037;-65
2022/04/29 01:22:01;;;;;;;7.20;4.28;;;7.30;99.90;;;;;;5054294;28;20040;-64
2022/04/29 01:24:26;;;;;;;6.90;4.50;;;7.20;99.90;;;;;;5050844;28;20144;-65
2022/04/29 01:26:52;;;;;;;7.22;4.10;;;7.20;99.90;;;;;;5048628;28;20044;-64
2022/04/29 01:29:19;;;;;;;9.20;5.10;;;7.20;99.90;;;;;;5047983;28;20050;-65
2022/04/29 01:31:47;;;;;;;4.72;3.72;;;7.20;99.90;;;;;;5045991;28;20048;-65
2022/04/29 01:34:13;;;;;;;8.68;4.60;;;7.10;99.90;;;;;;5046338;28;20048;-65
2022/04/29 01:36:38;;;;;;;7.47;4.13;;;7.10;99.90;;;;;;5048015;28;20055;-65
2022/04/29 01:39:04;;;;;;;6.10;3.70;;;7.10;99.90;;;;;;5046047;28;20113;-64
2022/04/29 01:41:32;;;;;;;12.98;5.32;;;7.00;99.90;;;;;;5051750;28;20121;-65
2022/04/29 01:43:58;;;;;;;7.22;4.57;;;7.00;99.90;;;;;;5051209;28;20693;-65
2022/04/29 01:46:24;;;;;;;5.90;3.95;;;7.00;99.90;;;;;;5045260;28;20071;-65
2022/04/29 01:48:49;;;;;;;9.50;3.88;;;7.00;99.90;;;;;;5047620;28;20036;-65
2022/04/29 01:51:15;;;;;;;5.88;4.07;;;7.00;99.90;;;;;;5047393;28;20055;-65
2022/04/29 01:53:41;;;;;;;6.63;4.13;;;7.00;99.90;;;;;;5044010;28;20044;-65
2022/04/29 01:56:06;;;;;;;7.18;4.22;;;7.00;99.90;;;;;;5046993;28;20064;-66
2022/04/29 01:58:32;;;;;;;8.13;4.82;;;7.00;99.90;;;;;;5045571;28;21031;-66
2022/04/29 02:00:58;;;;;;;9.27;4.53;;;7.00;99.90;;;;;;5049044;28;20831;-66
2022/04/29 02:03:23;;;;;;;6.00;4.07;;;7.00;99.90;;;;;;5049805;28;20049;-67
2022/04/29 02:05:49;;;;;;;10.23;4.50;;;6.90;99.90;;;;;;5047500;28;20037;-66
2022/04/29 02:08:14;;;;;;;9.40;4.38;;;6.90;99.90;;;;;;5047615;28;20045;-66
2022/04/29 02:10:40;;;;;;;5.68;3.67;;;6.80;99.90;;;;;;5052228;28;20044;-66
2022/04/29 02:13:05;;;;;;;8.25;4.10;;;6.80;99.90;;;;;;5046868;28;20083;-66
2022/04/29 02:15:31;;;;;;;9.48;4.50;;;6.80;99.90;;;;;;5050822;28;20040;-66
2022/04/29 02:17:57;;;;;;;7.57;3.80;;;6.70;99.90;;;;;;5045620;28;20059;-66
2022/04/29 02:20:24;;;;;;;10.13;5.00;;;6.70;99.90;;;;;;5046943;28;20048;-67
2022/04/29 02:22:50;;;;;;;11.52;4.43;;;6.70;99.90;;;;;;5053677;28;20053;-67
2022/04/29 02:25:16;;;;;;;8.45;4.35;;;6.70;99.90;;;;;;5049038;28;20173;-66
2022/04/29 02:27:42;;;;;;;5.63;3.78;;;6.60;99.90;;;;;;5045825;28;20055;-66
2022/04/29 02:30:08;;;;;;;4.30;3.78;;;6.70;99.90;;;;;;5045437;28;20036;-66
2022/04/29 02:32:34;;;;;;;5.07;3.60;;;6.60;99.90;;;;;;5047490;28;20799;-66
2022/04/29 02:35:00;;;;;;;12.48;5.57;;;6.70;99.90;;;;;;5045327;28;20051;-66
2022/04/29 02:37:27;;;;;;;6.57;4.25;;;6.70;99.90;;;;;;5046030;28;20044;-65
2022/04/29 02:39:53;;;;;;;8.32;4.45;;;6.70;99.90;;;;;;5047464;28;20148;-65
2022/04/29 02:42:19;;;;;;;6.28;4.53;;;6.70;99.90;;;;;;5048727;28;20075;-65
2022/04/29 02:44:45;;;;;;;5.85;4.30;;;6.70;99.90;;;;;;5054811;28;20828;-65
2022/04/29 02:47:10;;;;;;;7.47;3.75;;;6.70;99.90;;;;;;5048667;28;20068;-65
2022/04/29 02:49:38;;;;;;;7.18;4.22;;;6.70;99.90;;;;;;5047349;28;21034;-65
2022/04/29 02:52:06;;;;;;;9.75;4.35;;;6.60;99.90;;;;;;5050379;28;20582;-65
2022/04/29 02:54:32;;;;;;;8.90;4.10;;;6.60;99.90;;;;;;5045207;28;20071;-65
2022/04/29 02:56:57;;;;;;;5.32;3.70;;;6.60;99.90;;;;;;5046023;28;20053;-65
2022/04/29 02:59:23;;;;;;;8.25;3.50;;;6.60;99.90;;;;;;5044591;28;20342;-65
2022/04/29 03:01:49;;;;;;;9.02;5.50;;;6.40;99.90;;;;;;5045803;28;20293;-65
2022/04/29 03:04:15;;;;;;;12.88;4.72;;;6.70;99.90;;;;;;5044324;28;20143;-65
2022/04/29 03:06:40;;;;;;;5.82;3.97;;;6.70;99.90;;;;;;5046984;28;20036;-64
2022/04/29 03:09:06;;;;;;;4.70;3.83;;;6.70;99.90;;;;;;5046335;28;20047;-65
2022/04/29 03:11:32;;;;;;;6.25;4.28;;;6.70;99.90;;;;;;5050603;28;20052;-65
2022/04/29 03:13:57;;;;;;;13.88;3.70;;;6.70;99.90;;;;;;5050371;28;20044;-65
2022/04/29 03:16:23;;;;;;;5.18;3.65;;;6.70;99.90;;;;;;5045635;28;21081;-65
2022/04/29 03:18:48;;;;;;;7.40;4.10;;;6.60;99.90;;;;;;5049437;28;20091;-65
2022/04/29 03:21:15;;;;;;;6.25;3.72;;;6.50;99.90;;;;;;5053052;28;20055;-65
2022/04/29 03:23:40;;;;;;;7.22;4.57;;;6.50;99.90;;;;;;5047618;28;20053;-64
2022/04/29 03:26:06;;;;;;;6.93;3.80;;;6.50;99.90;;;;;;5047576;28;20595;-65
2022/04/29 03:28:32;;;;;;;8.20;4.72;;;6.50;99.90;;;;;;5052131;28;20041;-65
2022/04/29 03:30:59;;;;;;;4.70;3.35;;;6.50;99.90;;;;;;5049000;28;20059;-65
2022/04/29 03:33:24;;;;;;;6.45;4.38;;;6.40;99.90;;;;;;5047859;28;20421;-65
2022/04/29 03:35:50;;;;;;;7.85;4.97;;;6.40;99.90;;;;;;5044761;28;20603;-65
2022/04/29 03:38:16;;;;;;;6.70;4.38;;;6.40;99.90;;;;;;5043850;28;20057;-65
2022/04/29 03:40:42;;;;;;;9.43;4.75;;;6.40;99.90;;;;;;5046676;28;20491;-65
2022/04/29 03:43:08;;;;;;;4.68;3.58;;;6.40;99.90;;;;;;5046497;28;20040;-65
2022/04/29 03:45:33;;;;;;;9.32;4.68;;;6.30;99.90;;;;;;5045730;28;20047;-65
2022/04/29 03:47:59;;;;;;;10.02;4.57;;;6.20;99.90;;;;;;5045438;28;20068;-65
2022/04/29 03:50:27;;;;;;;7.65;3.80;;;6.20;99.90;;;;;;5053630;28;20045;-65
2022/04/29 03:52:55;;;;;;;5.88;4.40;;;6.20;99.90;;;;;;5048350;28;20128;-65
2022/04/29 03:55:24;;;;;;;6.60;4.78;;;6.20;99.90;;;;;;5045537;28;20245;-65
2022/04/29 03:57:50;;;;;;;4.53;3.83;;;6.20;99.90;;;;;;5044843;28;20044;-66
2022/04/29 04:00:17;;;;;;;5.07;4.03;;;6.00;99.90;;;;;;5045189;28;20064;-65
2022/04/29 04:02:43;;;;;;;6.88;4.75;;;6.10;99.90;;;;;;5045539;28;20048;-65
2022/04/29 04:05:09;;;;;;;7.95;4.03;;;6.10;99.90;;;;;;5043498;28;20487;-65
2022/04/29 04:07:35;;;;;;;5.15;3.92;;;6.00;99.90;;;;;;5043816;28;20127;-65
2022/04/29 04:10:02;;;;;;;8.07;5.22;;;6.00;99.90;;;;;;5045955;28;20131;-64
2022/04/29 04:12:46;;;;;;;6.97;4.97;;;6.00;99.90;;;;;;5055327;28;20045;-65
2022/04/29 04:15:13;;;;;;;6.75;4.80;;;5.90;99.90;;;;;;5050250;28;20051;-65
2022/04/29 04:17:39;;;;;;;7.40;4.80;;;5.90;99.90;;;;;;5049353;28;20149;-65
2022/04/29 04:20:06;;;;;;;7.32;4.03;;;5.90;99.90;;;;;;5053366;28;20071;-65
2022/04/29 04:22:35;;;;;;;7.50;4.15;;;5.90;99.90;;;;;;5052639;28;20611;-65
2022/04/29 04:25:08;;;;;;;4.15;3.67;;;5.90;99.90;;;;;;5049444;28;20113;-65
2022/04/29 04:27:34;;;;;;;9.40;5.22;;;5.80;99.90;;;;;;5053272;28;20853;-65
2022/04/29 04:30:00;;;;;;;7.80;4.60;;;5.80;99.90;;;;;;5047454;28;20041;-65
2022/04/29 04:32:27;;;;;;;6.05;4.10;;;5.70;99.90;;;;;;5048380;28;20056;-65
2022/04/29 04:34:54;;;;;;;5.13;3.85;;;5.90;99.90;;;;;;5049889;28;20047;-65
2022/04/29 04:37:22;;;;;;;8.63;5.38;;;5.90;99.90;;;;;;5051875;28;20056;-65
2022/04/29 04:39:49;;;;;;;7.38;3.78;;;5.90;99.90;;;;;;5053765;28;20901;-65
2022/04/29 04:42:15;;;;;;;7.28;4.80;;;6.00;99.90;;;;;;5050296;28;20074;-65
2022/04/29 04:44:40;;;;;;;10.88;4.68;;;6.10;99.90;;;;;;5047875;28;20450;-65
2022/04/29 04:47:06;;;;;;;5.32;4.22;;;6.10;99.90;;;;;;5048768;28;20230;-65
2022/04/29 04:49:33;;;;;;;6.05;4.03;;;6.20;99.90;;;;;;5046635;28;20510;-65
2022/04/29 04:51:58;;;;;;;12.95;5.10;;;6.20;99.90;;;;;;5049488;28;20063;-65
2022/04/29 04:54:24;;;;;;;8.82;5.43;;;6.30;99.90;;;;;;5049141;28;20041;-65
2022/04/29 04:56:49;;;;;;;7.22;4.88;;;6.40;99.90;;;;;;5048710;28;20079;-65
2022/04/29 04:59:15;;;;;;;7.20;4.50;;;6.50;99.90;;;;;;5054826;28;20040;-65
2022/04/29 05:01:41;;;;;;;7.43;4.93;;;6.60;99.90;;;;;;5047715;28;20496;-65
2022/04/29 05:04:06;;;;;;;8.43;4.50;;;6.60;99.90;;;;;;5047497;28;20113;-65
2022/04/29 05:06:32;;;;;;;7.35;4.60;;;6.80;99.90;;;;;;5047063;28;20067;-65
2022/04/29 05:08:58;;;;;;;6.82;4.32;;;6.90;99.90;;;;;;5051578;28;20044;-65
2022/04/29 05:11:23;;;;;;;7.20;5.00;;;7.00;99.90;;;;;;5047808;28;20164;-65
2022/04/29 05:13:49;;;;;;;7.15;4.18;;;7.20;99.90;;;;;;5055314;28;20066;-65
2022/04/29 05:16:14;;;;;;;11.07;5.45;;;7.30;99.90;;;;;;5046534;28;20949;-65
2022/04/29 05:18:40;;;;;;;5.47;4.38;;;7.50;99.90;;;;;;5048486;28;20143;-65
2022/04/29 05:21:06;;;;;;;8.13;5.10;;;7.60;99.90;;;;;;5047973;28;20051;-65
2022/04/29 05:23:31;;;;;;;9.55;5.45;;;7.70;99.90;;;;;;5048814;28;20118;-65
2022/04/29 05:25:57;;;;;;;9.20;5.00;;;7.90;99.90;;;;;;5054845;28;20071;-65
2022/04/29 05:28:22;;;;;;;9.40;4.70;;;8.00;99.90;;;;;;5049718;28;20053;-65
2022/04/29 05:30:49;;;;;;;6.10;4.40;;;8.10;99.90;;;;;;5047644;28;20156;-65
2022/04/29 05:33:14;;;;;;;7.88;5.65;;;8.30;99.90;;;;;;5048442;28;20048;-65
2022/04/29 05:35:41;;;;;;;8.75;4.80;;;8.40;99.90;;;;;;5051667;28;20115;-65
2022/04/29 05:38:06;;;;;;;11.05;4.88;;;8.60;99.90;;;;;;5053575;28;20474;-65
2022/04/29 05:43:17;;;;;;;9.73;4.95;;;8.80;99.90;;;;;;5046124;28;20045;-65
2022/04/29 05:45:43;;;;;;;7.07;4.05;;;8.80;99.90;;;;;;5047819;28;20052;-65
2022/04/29 05:48:08;;;;;;;9.23;4.93;;;8.80;99.90;;;;;;5047708;28;20040;-66
2022/04/29 05:50:34;;;;;;;6.78;5.00;;;8.80;99.90;;;;;;5048155;28;20118;-65
2022/04/29 05:52:59;;;;;;;8.73;4.88;;;8.70;99.90;;;;;;5046585;28;20052;-65
2022/04/29 05:55:25;;;;;;;8.35;4.88;;;8.70;99.90;;;;;;5047299;28;20047;-65
2022/04/29 05:57:51;;;;;;;11.18;5.25;;;8.70;99.90;;;;;;5047178;28;20641;-65
2022/04/29 06:00:19;;;;;;;10.15;4.93;;;8.70;99.90;;;;;;5047610;28;20258;-65
2022/04/29 06:02:45;;;;;;;10.05;5.18;;;8.60;99.90;;;;;;5048762;28;20605;-65
2022/04/29 06:05:11;;;;;;;8.32;4.55;;;8.70;99.90;;;;;;5046972;28;20057;-67
2022/04/29 06:07:37;;;;;;;6.97;4.43;;;8.70;99.90;;;;;;5044949;28;20051;-67
2022/04/29 06:10:05;;;;;;;7.20;5.45;;;8.70;99.90;;;;;;5045963;28;20044;-67
2022/04/29 06:12:30;;;;;;;9.30;4.20;;;8.70;99.90;;;;;;5042513;28;20484;-67
2022/04/29 06:14:56;;;;;;;6.40;4.30;;;8.80;99.90;;;;;;5045959;28;20109;-67
2022/04/29 06:17:22;;;;;;;7.00;4.72;;;8.80;99.90;;;;;;5048855;28;20060;-67
2022/04/29 06:19:48;;;;;;;12.50;4.60;;;8.80;99.90;;;;;;5044978;28;20905;-67
2022/04/29 06:22:14;;;;;;;4.97;4.28;;;8.90;99.90;;;;;;5047327;28;20047;-67
2022/04/29 06:24:39;;;;;;;5.85;4.82;;;8.90;99.90;;;;;;5041964;28;20041;-64
2022/04/29 06:27:05;;;;;;;8.02;4.28;;;8.90;99.90;;;;;;5044798;28;20028;-64
2022/04/29 06:29:30;;;;;;;5.88;3.95;;;9.50;99.90;;;;;;5049008;28;20048;-64
2022/04/29 06:31:56;;;;;;;5.65;3.88;;;9.00;99.90;;;;;;5042414;28;20791;-65
2022/04/29 06:34:22;;;;;;;5.30;3.80;;;9.10;99.90;;;;;;5040552;28;20125;-65
2022/04/29 06:36:48;;;;;;;6.13;3.42;;;9.10;99.90;;;;;;5040063;28;20075;-64
2022/04/29 06:39:13;;;;;;;4.60;3.30;;;9.20;99.90;;;;;;5040505;28;20155;-64
2022/04/29 06:41:40;;;;;;;5.35;3.65;;;9.20;99.90;;;;;;5041203;28;20052;-64
2022/04/29 06:44:06;;;;;;;9.05;3.40;;;9.30;99.90;;;;;;5039693;28;20044;-64
2022/04/29 06:46:32;;;;;;;8.23;3.47;;;9.30;99.90;;;;;;5041427;28;20075;-64
2022/04/29 06:48:58;;;;;;;4.90;3.75;;;9.30;99.90;;;;;;5039873;28;20074;-65
2022/04/29 06:51:24;;;;;;;6.22;3.20;;;9.30;99.90;;;;;;5039612;28;20048;-64
2022/04/29 06:53:51;;;;;;;6.25;3.67;;;9.10;99.90;;;;;;5038779;28;20048;-64
2022/04/29 06:56:16;;;;;;;4.93;3.60;;;9.30;99.90;;;;;;5041172;28;20129;-64
2022/04/29 06:58:42;;;;;;;6.25;4.18;;;9.30;99.90;;;;;;5042382;28;20058;-64
2022/04/29 07:01:07;;;;;;;4.32;3.00;;;9.40;99.90;;;;;;5042944;28;20115;-64
2022/04/29 07:03:33;;;;;;;4.30;3.80;;;9.40;99.90;;;;;;5039055;28;20080;-65
2022/04/29 07:06:01;;;;;;;4.40;3.60;;;9.50;99.90;;;;;;5041672;28;20210;-63
2022/04/29 07:08:28;;;;;;;8.35;3.28;;;9.60;99.90;;;;;;5043614;28;20441;-64
2022/04/29 07:10:55;;;;;;;5.68;3.88;;;9.60;99.90;;;;;;5043783;28;20073;-64
2022/04/29 07:13:21;;;;;;;7.43;3.97;;;9.70;99.90;;;;;;5041294;28;20353;-64
2022/04/29 07:15:48;;;;;;;5.40;3.92;;;9.70;99.90;;;;;;5043029;28;20039;-64
2022/04/29 07:18:14;;;;;;;5.32;4.03;;;9.80;99.90;;;;;;5044918;28;20057;-64
2022/04/29 07:20:40;;;;;;;3.95;3.55;;;9.80;99.90;;;;;;5046955;28;20052;-64
2022/04/29 07:23:06;;;;;;;6.65;3.88;;;9.90;99.90;;;;;;5042433;28;20041;-64
2022/04/29 07:25:31;;;;;;;7.50;4.00;;;10.00;99.90;;;;;;5042830;28;20047;-64
2022/04/29 07:27:57;;;;;;;5.82;3.90;;;10.20;99.90;;;;;;5042035;28;20826;-64
2022/04/29 07:30:23;;;;;;;6.63;3.53;;;10.30;99.90;;;;;;5041081;28;20053;-64
2022/04/29 07:32:48;;;;;;;10.07;3.80;;;10.30;99.90;;;;;;5042377;28;20072;-64
2022/04/29 07:43:27;;;;;;;6.35;3.10;;;10.70;99.90;;;;;;5038999;28;20140;-65
2022/04/29 07:45:53;;;;;;;3.10;2.75;;;10.40;99.90;;;;;;5041329;28;20169;-65
2022/04/29 07:48:19;;;;;;;5.68;2.53;;;10.60;99.90;;;;;;5043912;28;20788;-65
2022/04/29 07:50:45;;;;;;;3.92;3.10;;;10.70;99.90;;;;;;5042983;28;20036;-64
2022/04/29 07:53:10;;;;;;;4.53;2.70;;;10.80;99.90;;;;;;5043621;28;20404;-66
2022/04/29 07:55:36;;;;;;;8.63;3.35;;;11.00;99.90;;;;;;5042491;28;20919;-65
2022/04/29 07:58:03;;;;;;;3.45;3.03;;;10.80;99.90;;;;;;5043320;28;20052;-65
2022/04/29 08:00:31;;;;;;;8.50;2.88;;;10.80;99.90;;;;;;5043361;28;20044;-64
2022/04/29 08:02:58;;;;;;;3.88;2.70;;;10.70;99.80;;;;;;5042715;28;20283;-65
2022/04/29 08:05:24;;;;;;;4.03;3.03;;;10.50;99.00;;;;;;5043086;28;20869;-65
2022/04/29 08:07:50;;;;;;;5.18;3.17;;;10.30;99.90;;;;;;5040061;28;20052;-64
2022/04/29 08:10:15;;;;;;;5.00;2.55;;;10.30;99.90;;;;;;5042763;28;20056;-65
2022/04/29 08:12:41;;;;;;;4.35;2.47;;;10.40;99.90;;;;;;5042808;28;20041;-64
2022/04/29 08:15:07;;;;;;;2.75;2.55;;;10.60;99.90;;;;;;5044148;28;20039;-65
2022/04/29 08:17:32;;;;;;;2.50;2.28;;;10.80;99.90;;;;;;5045882;28;20048;-64
2022/04/29 08:19:58;;;;;;;6.13;3.03;;;10.90;99.90;;;;;;5046503;28;20047;-64
2022/04/29 08:22:24;;;;;;;5.55;3.10;;;10.80;98.80;;;;;;5044576;28;20047;-65
2022/04/29 08:24:50;;;;;;;4.43;2.50;;;10.70;99.70;;;;;;5044801;28;20052;-65
2022/04/29 08:27:16;;;;;;;5.50;3.15;;;10.60;99.90;;;;;;5044190;28;20086;-65
2022/04/29 08:29:42;;;;;;;4.38;2.80;;;10.60;99.10;;;;;;5042802;28;20056;-64
2022/04/29 08:32:07;;;;;;;2.38;2.17;;;10.60;99.80;;;;;;5038588;28;21011;-65
2022/04/29 08:34:36;;;;;;;6.53;2.75;;;10.80;99.90;;;;;;5041114;28;20804;-64
2022/04/29 08:37:04;;;;;;;6.25;2.25;;;10.80;98.90;;;;;;5044564;28;20079;-65
2022/04/29 08:39:30;;;;;;;5.30;2.28;;;10.90;99.90;;;;;;5042096;28;20149;-65
2022/04/29 08:42:00;;;;;;;4.55;2.33;;;10.90;99.90;;;;;;5043313;28;20041;-64
2022/04/29 08:44:29;;;;;;;3.00;2.35;;;10.90;98.60;;;;;;5045455;28;20040;-65
2022/04/29 08:46:55;;;;;;;2.53;2.33;;;10.80;99.50;;;;;;5044864;28;20187;-65
2022/04/29 08:49:22;;;;;;;2.85;2.25;;;10.80;99.40;;;;;;5044297;28;21277;-65
2022/04/29 08:51:47;;;;;;;2.58;2.25;;;10.80;99.90;;;;;;5045410;28;20151;-65
2022/04/29 08:58:36;;;;;;;5.90;2.45;;;10.80;99.90;;;;;;5046996;28;20050;-65
2022/04/29 08:59:46;;;;;;;3.20;2.90;;;10.90;99.60;;;;;;5047222;28;20167;-65
2022/04/29 09:02:12;;;;;;;2.95;2.75;;;10.90;99.40;;;;;;5046872;28;20051;-64
2022/04/29 09:04:38;;;;;;;3.95;2.30;;;11.00;99.90;;;;;;5045686;28;20064;-64
2022/04/29 09:07:03;;;;;;;5.63;1.95;;;11.10;99.90;;;;;;5052392;28;20063;-65
2022/04/29 09:09:29;;;;;;;5.80;2.60;;;11.10;99.70;;;;;;5049846;28;20050;-65
2022/04/29 09:12:15;;;;;;;4.45;2.38;;;11.10;99.50;;;;;;5048522;28;20048;-65
2022/04/29 09:14:42;;;;;;;4.55;1.90;;;11.10;99.20;;;;;;5047078;28;20051;-65
2022/04/29 09:17:28;;;;;;;4.55;2.28;;;11.20;99.90;;;;;;5045750;28;20995;-65
2022/04/29 09:19:54;;;;;;;3.30;2.20;;;11.30;99.80;;;;;;5046535;28;20044;-65
2022/04/29 09:22:19;;;;;;;10.25;3.22;;;11.00;99.90;;;;;;5044773;28;20749;-65
2022/04/29 09:25:03;;;;;;;2.97;2.05;;;11.00;99.90;;;;;;4694726;28;9999756;-65
2022/04/29 09:27:28;;;;;;;3.00;2.53;;;11.00;99.90;;;;;;5041090;28;20087;-65
2022/04/29 09:30:01;;;;;;;4.60;2.60;;;10.80;99.90;;;;;;5041396;28;20052;-64
2022/04/29 09:32:49;;;;;;;4.33;2.33;;;10.70;99.90;;;;;;5042005;28;20106;-65
2022/04/29 09:35:16;;;;;;;3.50;2.20;;;10.50;99.90;;;;;;5036298;28;20330;-64
2022/04/29 09:39:26;;;;;;;4.18;2.78;;;10.70;99.90;;;;;;5037721;28;20054;-64
2022/04/29 09:40:38;;;;;;;4.38;2.55;;;10.70;99.90;;;;;;5041370;28;20051;-65
2022/04/29 09:43:03;;;;;;;4.07;2.78;;;10.80;99.90;;;;;;5040951;28;20037;-65
2022/04/29 09:45:29;;;;;;;3.50;2.60;;;10.80;99.90;;;;;;5036373;28;20106;-66
2022/04/29 09:47:58;;;;;;;9.13;3.70;;;10.80;99.90;;;;;;5038518;28;20036;-66
2022/04/29 09:50:50;;;;;;;6.18;3.03;;;10.70;99.90;;;;;;5042086;28;20133;-65
2022/04/29 09:53:20;;;;;;;3.80;2.88;;;10.70;99.90;;;;;;5043583;28;20036;-65
2022/04/29 09:56:05;;;;;;;3.30;2.60;;;10.80;99.90;;;;;;5042194;28;20045;-65
2022/04/29 09:58:32;;;;;;;5.18;2.95;;;11.00;99.90;;;;;;5035583;28;20049;-65
2022/04/29 10:01:00;;;;;;;4.88;2.90;;;10.80;99.90;;;;;;5045061;28;20041;-65
2022/04/29 10:03:26;;;;;;;4.30;3.25;;;11.00;99.90;;;;;;5042466;28;20052;-65
2022/04/29 10:05:53;;;;;;;3.60;2.80;;;11.00;98.90;;;;;;5041638;28;20068;-65
2022/04/29 10:08:19;;;;;;;4.53;2.80;;;11.10;99.60;;;;;;5039028;28;20840;-65
2022/04/29 10:10:48;;;;;;;5.03;3.70;;;11.10;99.80;;;;;;5042086;28;20357;-65
2022/04/29 10:13:17;;;;;;;3.13;2.70;;;11.00;98.60;;;;;;5042062;28;20048;-65
2022/04/29 10:15:46;;;;;;;3.83;2.90;;;11.10;99.20;;;;;;5039051;28;20836;-65
2022/04/29 10:21:17;;;;;;;4.50;3.28;;;11.00;99.60;;;;;;5039369;28;20052;-65
2022/04/29 10:23:48;;;;;;;4.80;3.53;;;11.00;99.20;;;;;;5038717;28;20044;-65
2022/04/29 10:26:21;;;;;;;11.35;3.78;;;11.10;98.90;;;;;;5037710;28;20052;-65
2022/04/29 10:28:49;;;;;;;5.15;3.60;;;11.30;98.90;;;;;;5039842;28;20103;-65
2022/04/29 10:31:19;;;;;;;4.05;3.72;;;11.40;99.20;;;;;;5037841;28;20114;-66
2022/04/29 10:33:45;;;;;;;5.82;4.05;;;11.60;99.00;;;;;;5039160;28;20097;-66
2022/04/29 10:36:14;;;;;;;5.38;4.00;;;11.70;98.70;;;;;;5041676;28;20235;-65
2022/04/29 10:38:43;;;;;;;4.75;3.40;;;11.60;98.20;;;;;;5038942;28;20179;-66
2022/04/29 10:41:20;;;;;;;5.20;3.55;;;11.40;98.80;;;;;;5042611;28;20113;-65
2022/04/29 10:43:54;;;;;;;3.50;3.20;;;11.40;97.50;;;;;;5038670;28;20040;-65
2022/04/29 10:46:30;;;;;;;7.40;3.90;;;11.30;98.40;;;;;;5040948;28;20198;-66
2022/04/29 10:48:55;;;;;;;4.13;3.40;;;11.30;98.40;;;;;;5037451;28;20553;-65
2022/04/29 10:51:47;;;;;;;6.25;3.40;;;11.40;98.90;;;;;;5039798;28;20709;-65
2022/04/29 10:54:13;;;;;;;4.22;3.80;;;11.20;97.50;;;;;;5040070;28;20052;-66
2022/04/29 10:56:38;;;;;;;6.40;3.92;;;11.20;98.90;;;;;;5040074;28;20836;-66
2022/04/29 10:59:04;;;;;;;4.95;4.18;;;11.20;98.60;;;;;;5038739;28;20249;-65
2022/04/29 11:01:34;;;;;;;4.15;3.75;;;11.20;98.30;;;;;;5037870;28;20048;-63
2022/04/29 11:04:00;;;;;;;5.82;4.30;;;11.30;98.70;;;;;;5038548;28;20073;-65
2022/04/29 11:06:49;;;;;;;5.00;3.85;;;11.30;98.70;;;;;;5039537;28;20058;-65
2022/04/29 11:09:23;;;;;;;6.78;4.18;;;11.20;98.50;;;;;;5035577;28;20757;-65
2022/04/29 11:11:49;;;;;;;5.80;4.82;;;11.00;98.40;;;;;;5040002;28;20864;-65
2022/04/29 11:14:15;;;;;;;7.15;4.65;;;10.90;98.80;;;;;;5042589;28;20041;-65
2022/04/29 11:16:52;;;;;;;4.93;3.72;;;10.90;99.30;;;;;;5042770;28;20063;-65
2022/04/29 11:19:22;;;;;;;5.63;4.00;;;11.10;99.60;;;;;;5039382;28;20102;-65
2022/04/29 11:24:48;;;;;;;6.30;4.03;;;11.10;99.20;;;;;;5041462;28;20106;-65
2022/04/29 11:27:23;;;;;;;3.90;3.47;;;10.90;97.90;;;;;;4888394;28;20068;-65
2022/04/29 11:29:49;;;;;;;5.10;3.55;;;10.90;98.70;;;;;;4995662;28;20046;-66
2022/04/29 11:32:22;;;;;;;5.35;3.25;;;11.00;98.90;;;;;;4972597;28;20063;-66
2022/04/29 11:34:54;;;;;;;5.75;3.33;;;11.10;98.20;;;;;;4998154;28;20042;-65
2022/04/29 11:37:27;;;;;;;3.65;3.20;;;11.00;98.70;;;;;;4997369;28;20480;-65
2022/04/29 11:40:00;;;;;;;3.85;2.80;;;11.00;97.90;;;;;;4998541;28;21027;-65
2022/04/29 11:42:26;;;;;;;6.38;4.07;;;10.90;98.50;;;;;;4995479;28;20084;-65
2022/04/29 11:44:52;;;;;;;4.50;3.17;;;10.90;98.10;;;;;;4999151;28;20101;-65
2022/04/29 11:47:25;;;;;;;4.88;3.22;;;10.80;98.30;;;;;;5005740;28;20037;-65
2022/04/29 11:49:52;;;;;;;3.67;3.38;;;10.80;98.00;;;;;;5000538;28;20049;-65
2022/04/29 11:52:33;;;;;;;5.45;3.17;;;10.80;98.10;;;;;;4999943;28;20076;-65
2022/04/29 11:55:01;;;;;;;4.28;2.90;;;10.90;98.60;;;;;;5004627;28;20120;-65
2022/04/29 11:57:30;;;;;;;4.43;3.40;;;10.90;98.30;;;;;;5004009;28;20132;-65
2022/04/29 11:59:57;;;;;;;6.75;2.63;;;11.00;98.30;;;;;;4996952;28;20465;-65
2022/04/29 12:02:24;;;;;;;4.82;3.10;;;11.00;97.90;;;;;;4993189;28;20060;-65
2022/04/29 12:04:57;;;;;;;4.90;3.65;;;11.10;97.40;;;;;;4992353;28;20053;-65
2022/04/29 12:07:24;;;;;;;3.70;3.40;;;11.20;97.00;;;;;;4992055;28;20050;-65
2022/04/29 12:09:50;;;;;;;8.15;3.80;;;11.20;96.90;;;;;;4992219;28;20042;-65
2022/04/29 12:12:32;;;;;;;3.00;2.38;;;11.30;97.30;;;;;;4994115;28;20064;-65
2022/04/29 12:14:59;;;;;;;4.40;3.17;;;11.50;96.90;;;;;;4995794;28;20045;-65
2022/04/29 12:17:32;;;;;;;4.75;2.78;;;11.40;96.00;;;;;;4997665;28;20045;-65
2022/04/29 12:19:59;;;;;;;3.63;2.85;;;11.50;96.70;;;;;;4997192;28;20053;-65
2022/04/29 12:22:34;;;;;;;3.40;3.20;;;11.60;96.70;;;;;;4996121;28;20041;-66
2022/04/29 12:25:18;;;;;;;3.33;2.97;;;11.60;95.00;;;;;;4996975;28;20052;-65
2022/04/29 12:27:44;;;;;;;6.28;2.40;;;11.60;95.00;;;;;;4999393;28;20528;-65
2022/04/29 12:36:07;;;;;;;3.78;2.80;;;11.70;95.50;;;;;;5002434;28;20057;-65
2022/04/29 12:38:37;;;;;;;4.20;3.20;;;11.70;94.70;;;;;;5004106;28;20053;-65
2022/04/29 12:41:20;;;;;;;4.88;3.05;;;11.70;95.90;;;;;;5003058;28;20149;-64
2022/04/29 12:43:46;;;;;;;5.20;2.80;;;11.70;95.90;;;;;;5003862;28;20111;-64
2022/04/29 12:46:16;;;;;;;4.13;2.50;;;11.40;95.60;;;;;;5002613;28;20059;-65
2022/04/29 12:48:50;;;;;;;3.47;3.08;;;11.50;96.50;;;;;;5004103;28;20056;-65
2022/04/29 12:51:31;;;;;;;3.35;3.00;;;11.40;95.40;;;;;;5008802;28;20075;-65
2022/04/29 12:53:58;;;;;;;3.88;3.03;;;11.40;95.00;;;;;;5008491;28;20064;-63
2022/04/29 12:56:32;;;;;;;5.43;3.55;;;11.60;95.90;;;;;;5008844;28;20053;-63
2022/04/29 12:58:59;;;;;;;3.92;2.92;;;11.70;95.40;;;;;;5001625;28;20049;-63
2022/04/29 13:01:25;;;;;;;4.60;2.67;;;11.70;94.80;;;;;;5005287;28;20041;-63
2022/04/29 13:03:55;;;;;;;3.83;2.38;;;11.70;95.20;;;;;;5004136;28;20083;-62
2022/04/29 13:06:24;;;;;;;3.92;2.63;;;11.80;95.20;;;;;;5003605;28;20186;-63
2022/04/29 13:08:54;;;;;;;4.72;3.20;;;11.90;95.40;;;;;;5006960;28;20042;-62
2022/04/29 13:11:21;;;;;;;6.40;2.75;;;11.90;94.70;;;;;;5002645;28;20588;-62
2022/04/29 13:13:51;;;;;;;7.50;2.95;;;11.80;94.90;;;;;;5003235;28;20052;-63
2022/04/29 13:16:19;;;;;;;5.85;3.08;;;11.80;95.30;;;;;;5006489;28;20562;-63
2022/04/29 13:18:44;;;;;;;4.70;2.63;;;11.90;94.60;;;;;;5008980;28;20556;-63